Nearby METAR Reports

 

KCRE - North Myrtle Beach, South Carolina, USA
Distance from station: WSW 14mi, 23km
Updated: 10/23/2017 5:37am
Overcast
Overcast
 Wind from SE
Wind: SE 8 mph , 13 km/h
Temperature: 72°F , 22°C
Dew Point: 72°F , 22°C
Humidity: 100%
Barometer: 30.15 inHg , 1021 hPa
Clouds: Overcast
Visibility: 10 miles , 16 km
Cloud details: Mostly cloudy 800 ft
Mostly cloudy 2800 ft
Overcast 3900 ft
2017/10/23 09:37 KCRE 230937Z AUTO 14007KT 110V170 10SM BKN008 BKN028 OVC039 22/22 A3015 RMK AO1 RAE29 CIG 005V013 P0001 T02220217
KSUT - Southport, North Carolina, USA
Distance from station: E 24mi, 38km
Updated: 10/23/2017 5:25am
Overcast
Overcast
 Wind from ESE
Wind: ESE 5 mph , 7 km/h
Temperature: 75°F , 24°C
Dew Point: 66°F , 19°C
Humidity: 74%
Barometer: 30.17 inHg , 1021.7 hPa
Clouds: Overcast
Visibility: 10 miles , 16 km
Cloud details: Overcast 6000 ft
2017/10/23 09:25 KSUT 230925Z AUTO 12004KT 10SM OVC060 24/19 A3017 RMK AO2 T02350192
KCPC - Whiteville, North Carolina, USA
Distance from station: NNW 28mi, 46km
Updated: 10/23/2017 5:25am
Light rain, Overcast
Light rain, Overcast
 Wind from ENE
Wind: ENE 3 mph , 6 km/h
Temperature: 70°F , 21°C
Dew Point: 68°F , 20°C
Humidity: 94%
Barometer: 30.16 inHg , 1021.3 hPa
Summary: Light rain
Clouds: Overcast
Visibility: 3 miles , 5 km
Cloud details: Partly cloudy 300 ft
Mostly cloudy 2500 ft
Overcast 3800 ft
2017/10/23 09:25 KCPC 230925Z AUTO 07003KT 3SM -RA SCT003 BKN025 OVC038 21/20 A3016 RMK AO2 T02050199
 
KILM - Wilmington, North Carolina, USA
Distance from station: NE 42mi, 67km
Updated: 10/23/2017 4:53am
Overcast
Overcast
 Wind from SE
Wind: SE 8 mph , 13 km/h
Temperature: 73°F , 23°C
Dew Point: 64°F , 18°C
Humidity: 74%
Barometer: 30.18 inHg , 1022 hPa
Clouds: Overcast
Visibility: 10 miles , 16 km
Cloud details: Overcast 6000 ft
2017/10/23 08:53 KILM 230853Z AUTO 13007KT 10SM OVC060 23/18 A3018 RMK AO2 SLP219 T02330183 56012
KLBT - Lumberton, North Carolina, USA
Distance from station: NW 57mi, 92km
Updated: 10/23/2017 5:34am
Overcast
Overcast
 Wind from ESE
Wind: ESE 7 mph , 11 km/h
Temperature: 66°F , 19°C
Dew Point: 66°F , 19°C
Humidity: 100%
Barometer: 30.15 inHg , 1021 hPa
Clouds: Overcast
Visibility: 9 miles , 14 km
Cloud details: Few Clouds 1300 ft
Mostly cloudy 2300 ft
Overcast 4800 ft
2017/10/23 09:34 KLBT 230934Z AUTO 12006KT 9SM FEW013 BKN023 OVC048 19/19 A3015 RMK AO2 T01940189 TSNO $
KGGE - Georgetown, South Carolina, USA
Distance from station: SW 63mi, 101km
Updated: 10/23/2017 5:35am
Mostly cloudy
Mostly cloudy
 Wind from SE
Wind: SE 3 mph , 6 km/h
Temperature: 70°F , 21°C
Dew Point: 70°F , 21°C
Humidity: 100%
Barometer: 30.13 inHg , 1020.3 hPa
Clouds: Mostly cloudy
Visibility: 10 miles , 16 km
Cloud details: Mostly cloudy 9000 ft
2017/10/23 09:35 KGGE 230935Z AUTO 13003KT 10SM BKN090 21/21 A3013 RMK AO2
 
KFLO - Florence, South Carolina, USA
Distance from station: WNW 73mi, 118km
Updated: 10/23/2017 4:53am
Overcast
Overcast
 Wind from ESE
Wind: ESE 6 mph , 9 km/h
Temperature: 66°F , 19°C
Dew Point: 66°F , 19°C
Humidity: 100%
Barometer: 30.13 inHg , 1020.3 hPa
Clouds: Overcast
Visibility: 10 miles , 16 km
Cloud details: Few Clouds 6500 ft
Mostly cloudy 8500 ft
Overcast 11000 ft
2017/10/23 08:53 KFLO 230853Z AUTO 12005KT 10SM FEW065 BKN085 OVC110 19/19 A3013 RMK AO2 RAB25E42 SLP201 P0000 60000 T01940194 56020
KCTZ - Clinton, North Carolina, USA
Distance from station: N 74mi, 119km
Updated: 10/23/2017 5:25am
Mostly cloudy
Mostly cloudy
 Wind from calm
Wind: Calm
Temperature: 66°F , 19°C
Dew Point: 64°F , 18°C
Humidity: 94%
Barometer: 30.19 inHg , 1022.4 hPa
Clouds: Mostly cloudy
Visibility: 10 miles , 16 km
Cloud details: Mostly cloudy 4300 ft
Mostly cloudy 4800 ft
2017/10/23 09:25 KCTZ 230925Z AUTO 00000KT 10SM BKN043 BKN048 19/18 A3019 RMK AO2 T01860179
KFAY - Fayetteville, North Carolina, USA
Distance from station: NNW 77mi, 124km
Updated: 10/23/2017 4:53am
Overcast
Overcast
 Wind from E
Wind: E 6 mph , 9 km/h
Temperature: 66°F , 19°C
Dew Point: 64°F , 18°C
Humidity: 94%
Barometer: 30.17 inHg , 1021.7 hPa
Clouds: Overcast
Visibility: 10 miles , 16 km
Cloud details: Mostly cloudy 3300 ft
Overcast 5000 ft
2017/10/23 08:53 KFAY 230853Z AUTO 09005KT 10SM BKN033 OVC050 19/18 A3017 RMK AO2 SLP210 T01890178 58013
 
KOAJ - Jacksonville, North Carolina, USA
Distance from station: NE 80mi, 129km
Updated: 10/23/2017 4:56am
Clear
Clear
 Wind from NE
Wind: NE 3 mph , 6 km/h
Temperature: 61°F , 16°C
Dew Point: 61°F , 16°C
Humidity: 100%
Barometer: 30.20 inHg , 1022.7 hPa
Clouds: Clear
Visibility: 10 miles , 16 km
2017/10/23 08:56 KOAJ 230856Z AUTO 04003KT 10SM CLR 16/16 A3020 RMK AO2 SLP232 T01560156 56010